sensor_id;sensor_type;location;lat;lon;timestamp;P1;durP1;ratioP1;P2;durP2;ratioP2
7557;SDS011;3820;51.098;13.716;2022-12-24T00:02:25;0.87;;;0.73;;
7557;SDS011;3820;51.098;13.716;2022-12-24T00:04:52;0.80;;;0.80;;
7557;SDS011;3820;51.098;13.716;2022-12-24T00:07:26;0.93;;;0.90;;
7557;SDS011;3820;51.098;13.716;2022-12-24T00:09:52;0.60;;;0.60;;
7557;SDS011;3820;51.098;13.716;2022-12-24T00:12:18;4.57;;;0.90;;
7557;SDS011;3820;51.098;13.716;2022-12-24T00:14:45;1.20;;;0.90;;
7557;SDS011;3820;51.098;13.716;2022-12-24T00:17:12;1.37;;;0.90;;
7557;SDS011;3820;51.098;13.716;2022-12-24T00:19:38;2.03;;;1.23;;
7557;SDS011;3820;51.098;13.716;2022-12-24T00:22:05;3.50;;;0.90;;
7557;SDS011;3820;51.098;13.716;2022-12-24T00:24:31;0.97;;;0.90;;
7557;SDS011;3820;51.098;13.716;2022-12-24T00:26:58;1.30;;;1.10;;
7557;SDS011;3820;51.098;13.716;2022-12-24T00:29:25;1.80;;;1.07;;
7557;SDS011;3820;51.098;13.716;2022-12-24T00:31:52;2.67;;;0.83;;
7557;SDS011;3820;51.098;13.716;2022-12-24T00:34:21;0.60;;;0.60;;
7557;SDS011;3820;51.098;13.716;2022-12-24T00:36:48;0.70;;;0.70;;
7557;SDS011;3820;51.098;13.716;2022-12-24T00:39:15;1.00;;;0.90;;
7557;SDS011;3820;51.098;13.716;2022-12-24T00:41:41;0.90;;;0.80;;
7557;SDS011;3820;51.098;13.716;2022-12-24T00:44:08;0.90;;;0.70;;
7557;SDS011;3820;51.098;13.716;2022-12-24T00:46:36;0.57;;;0.57;;
7557;SDS011;3820;51.098;13.716;2022-12-24T00:49:05;2.30;;;1.00;;
7557;SDS011;3820;51.098;13.716;2022-12-24T00:51:33;0.80;;;0.80;;
7557;SDS011;3820;51.098;13.716;2022-12-24T00:54:00;0.80;;;0.60;;
7557;SDS011;3820;51.098;13.716;2022-12-24T00:56:27;1.40;;;1.00;;
7557;SDS011;3820;51.098;13.716;2022-12-24T00:58:53;2.40;;;1.00;;
7557;SDS011;3820;51.098;13.716;2022-12-24T01:01:20;0.73;;;0.60;;
7557;SDS011;3820;51.098;13.716;2022-12-24T01:03:47;3.73;;;1.23;;
7557;SDS011;3820;51.098;13.716;2022-12-24T01:06:16;0.73;;;0.73;;
7557;SDS011;3820;51.098;13.716;2022-12-24T01:08:45;3.13;;;0.77;;
7557;SDS011;3820;51.098;13.716;2022-12-24T01:11:12;0.97;;;0.97;;
7557;SDS011;3820;51.098;13.716;2022-12-24T01:13:38;3.13;;;1.00;;
7557;SDS011;3820;51.098;13.716;2022-12-24T01:16:13;5.50;;;1.10;;
7557;SDS011;3820;51.098;13.716;2022-12-24T01:18:41;3.10;;;1.10;;
7557;SDS011;3820;51.098;13.716;2022-12-24T01:21:08;1.80;;;1.20;;
7557;SDS011;3820;51.098;13.716;2022-12-24T01:23:34;2.47;;;1.50;;
7557;SDS011;3820;51.098;13.716;2022-12-24T01:26:01;0.97;;;0.93;;
7557;SDS011;3820;51.098;13.716;2022-12-24T01:28:30;1.73;;;1.10;;
7557;SDS011;3820;51.098;13.716;2022-12-24T01:30:56;2.53;;;1.30;;
7557;SDS011;3820;51.098;13.716;2022-12-24T01:33:23;1.90;;;1.03;;
7557;SDS011;3820;51.098;13.716;2022-12-24T01:35:49;1.33;;;1.10;;
7557;SDS011;3820;51.098;13.716;2022-12-24T01:38:16;3.13;;;1.17;;
7557;SDS011;3820;51.098;13.716;2022-12-24T01:40:42;2.00;;;0.73;;
7557;SDS011;3820;51.098;13.716;2022-12-24T01:43:29;1.23;;;0.83;;
7557;SDS011;3820;51.098;13.716;2022-12-24T01:45:58;2.13;;;1.40;;
7557;SDS011;3820;51.098;13.716;2022-12-24T01:48:32;3.00;;;1.10;;
7557;SDS011;3820;51.098;13.716;2022-12-24T01:51:00;1.40;;;1.10;;
7557;SDS011;3820;51.098;13.716;2022-12-24T01:53:29;2.73;;;1.47;;
7557;SDS011;3820;51.098;13.716;2022-12-24T01:55:56;2.83;;;1.20;;
7557;SDS011;3820;51.098;13.716;2022-12-24T01:58:23;2.00;;;1.50;;
7557;SDS011;3820;51.098;13.716;2022-12-24T02:00:51;3.90;;;0.93;;
7557;SDS011;3820;51.098;13.716;2022-12-24T02:03:18;1.67;;;1.23;;
7557;SDS011;3820;51.098;13.716;2022-12-24T02:05:52;6.27;;;1.73;;
7557;SDS011;3820;51.098;13.716;2022-12-24T02:08:21;1.80;;;0.80;;
7557;SDS011;3820;51.098;13.716;2022-12-24T02:10:48;1.43;;;0.87;;
7557;SDS011;3820;51.098;13.716;2022-12-24T02:13:16;0.73;;;0.73;;
7557;SDS011;3820;51.098;13.716;2022-12-24T02:16:09;3.23;;;1.10;;
7557;SDS011;3820;51.098;13.716;2022-12-24T02:18:37;1.87;;;1.20;;
7557;SDS011;3820;51.098;13.716;2022-12-24T02:32:23;1.10;;;1.00;;
7557;SDS011;3820;51.098;13.716;2022-12-24T02:35:11;5.40;;;1.37;;
7557;SDS011;3820;51.098;13.716;2022-12-24T02:40:54;2.23;;;1.60;;
7557;SDS011;3820;51.098;13.716;2022-12-24T02:43:24;1.80;;;1.03;;
7557;SDS011;3820;51.098;13.716;2022-12-24T02:45:56;4.53;;;1.00;;
7557;SDS011;3820;51.098;13.716;2022-12-24T02:48:25;2.40;;;1.20;;
7557;SDS011;3820;51.098;13.716;2022-12-24T02:50:53;3.30;;;0.87;;
7557;SDS011;3820;51.098;13.716;2022-12-24T02:53:31;2.63;;;0.80;;
7557;SDS011;3820;51.098;13.716;2022-12-24T03:01:47;1.03;;;0.70;;
7557;SDS011;3820;51.098;13.716;2022-12-24T03:13:06;2.40;;;0.87;;
7557;SDS011;3820;51.098;13.716;2022-12-24T03:15:37;1.63;;;0.90;;
7557;SDS011;3820;51.098;13.716;2022-12-24T03:18:05;1.63;;;0.70;;
7557;SDS011;3820;51.098;13.716;2022-12-24T03:20:39;4.13;;;0.90;;
7557;SDS011;3820;51.098;13.716;2022-12-24T03:23:08;0.80;;;0.80;;
7557;SDS011;3820;51.098;13.716;2022-12-24T03:25:37;1.33;;;0.80;;
7557;SDS011;3820;51.098;13.716;2022-12-24T03:28:05;4.73;;;1.30;;
7557;SDS011;3820;51.098;13.716;2022-12-24T03:30:33;1.40;;;0.77;;
7557;SDS011;3820;51.098;13.716;2022-12-24T03:33:00;2.23;;;0.87;;
7557;SDS011;3820;51.098;13.716;2022-12-24T03:35:27;0.93;;;0.90;;
7557;SDS011;3820;51.098;13.716;2022-12-24T03:37:54;4.27;;;1.47;;
7557;SDS011;3820;51.098;13.716;2022-12-24T03:40:21;4.00;;;0.70;;
7557;SDS011;3820;51.098;13.716;2022-12-24T03:42:47;1.00;;;1.00;;
7557;SDS011;3820;51.098;13.716;2022-12-24T03:45:14;0.63;;;0.63;;
7557;SDS011;3820;51.098;13.716;2022-12-24T03:47:40;1.50;;;0.80;;
7557;SDS011;3820;51.098;13.716;2022-12-24T03:50:07;1.43;;;0.60;;
7557;SDS011;3820;51.098;13.716;2022-12-24T03:52:34;4.93;;;1.13;;
7557;SDS011;3820;51.098;13.716;2022-12-24T03:55:01;2.30;;;0.60;;
7557;SDS011;3820;51.098;13.716;2022-12-24T03:57:27;2.63;;;0.93;;
7557;SDS011;3820;51.098;13.716;2022-12-24T03:59:54;0.70;;;0.70;;
7557;SDS011;3820;51.098;13.716;2022-12-24T04:02:20;2.97;;;1.47;;
7557;SDS011;3820;51.098;13.716;2022-12-24T04:04:47;2.97;;;0.90;;
7557;SDS011;3820;51.098;13.716;2022-12-24T04:07:13;1.87;;;1.10;;
7557;SDS011;3820;51.098;13.716;2022-12-24T04:09:40;0.77;;;0.70;;
7557;SDS011;3820;51.098;13.716;2022-12-24T04:12:07;1.40;;;1.30;;
7557;SDS011;3820;51.098;13.716;2022-12-24T04:14:33;1.13;;;0.80;;
7557;SDS011;3820;51.098;13.716;2022-12-24T04:17:00;0.63;;;0.63;;
7557;SDS011;3820;51.098;13.716;2022-12-24T04:19:27;1.40;;;0.77;;
7557;SDS011;3820;51.098;13.716;2022-12-24T04:21:53;0.83;;;0.83;;
7557;SDS011;3820;51.098;13.716;2022-12-24T04:24:20;0.60;;;0.57;;
7557;SDS011;3820;51.098;13.716;2022-12-24T04:26:46;1.70;;;0.50;;
7557;SDS011;3820;51.098;13.716;2022-12-24T04:29:13;0.60;;;0.60;;
7557;SDS011;3820;51.098;13.716;2022-12-24T04:31:40;5.60;;;0.83;;
7557;SDS011;3820;51.098;13.716;2022-12-24T04:34:06;2.33;;;0.70;;
7557;SDS011;3820;51.098;13.716;2022-12-24T04:36:33;0.50;;;0.50;;
7557;SDS011;3820;51.098;13.716;2022-12-24T04:38:59;8.50;;;0.70;;
7557;SDS011;3820;51.098;13.716;2022-12-24T04:41:26;2.37;;;1.00;;
7557;SDS011;3820;51.098;13.716;2022-12-24T04:43:53;3.27;;;0.80;;
7557;SDS011;3820;51.098;13.716;2022-12-24T04:46:21;1.27;;;0.60;;
7557;SDS011;3820;51.098;13.716;2022-12-24T04:48:50;4.37;;;1.10;;
7557;SDS011;3820;51.098;13.716;2022-12-24T04:51:18;5.27;;;0.90;;
7557;SDS011;3820;51.098;13.716;2022-12-24T04:53:46;2.87;;;0.80;;
7557;SDS011;3820;51.098;13.716;2022-12-24T04:56:17;3.17;;;0.60;;
7557;SDS011;3820;51.098;13.716;2022-12-24T04:58:45;5.50;;;0.83;;
7557;SDS011;3820;51.098;13.716;2022-12-24T05:01:13;0.60;;;0.60;;
7557;SDS011;3820;51.098;13.716;2022-12-24T05:03:45;0.90;;;0.90;;
7557;SDS011;3820;51.098;13.716;2022-12-24T05:06:12;2.37;;;0.70;;
7557;SDS011;3820;51.098;13.716;2022-12-24T05:08:41;0.87;;;0.63;;
7557;SDS011;3820;51.098;13.716;2022-12-24T05:11:11;5.93;;;0.77;;
7557;SDS011;3820;51.098;13.716;2022-12-24T05:13:39;5.30;;;0.80;;
7557;SDS011;3820;51.098;13.716;2022-12-24T05:16:13;0.73;;;0.70;;
7557;SDS011;3820;51.098;13.716;2022-12-24T05:18:41;3.03;;;0.93;;
7557;SDS011;3820;51.098;13.716;2022-12-24T05:21:17;4.53;;;0.80;;
7557;SDS011;3820;51.098;13.716;2022-12-24T05:23:45;1.37;;;0.80;;
7557;SDS011;3820;51.098;13.716;2022-12-24T05:26:32;4.00;;;1.37;;
7557;SDS011;3820;51.098;13.716;2022-12-24T05:29:04;4.23;;;1.30;;
7557;SDS011;3820;51.098;13.716;2022-12-24T05:31:31;1.00;;;0.90;;
7557;SDS011;3820;51.098;13.716;2022-12-24T05:34:00;5.23;;;0.93;;
7557;SDS011;3820;51.098;13.716;2022-12-24T05:36:27;1.87;;;0.53;;
7557;SDS011;3820;51.098;13.716;2022-12-24T05:38:54;0.60;;;0.60;;
7557;SDS011;3820;51.098;13.716;2022-12-24T05:41:20;0.90;;;0.87;;
7557;SDS011;3820;51.098;13.716;2022-12-24T05:43:47;2.80;;;1.00;;
7557;SDS011;3820;51.098;13.716;2022-12-24T05:46:15;1.17;;;0.90;;
7557;SDS011;3820;51.098;13.716;2022-12-24T05:48:45;1.73;;;0.90;;
7557;SDS011;3820;51.098;13.716;2022-12-24T05:51:12;0.60;;;0.60;;
7557;SDS011;3820;51.098;13.716;2022-12-24T05:53:40;1.03;;;0.80;;
7557;SDS011;3820;51.098;13.716;2022-12-24T05:56:17;0.87;;;0.80;;
7557;SDS011;3820;51.098;13.716;2022-12-24T05:58:45;0.63;;;0.60;;
7557;SDS011;3820;51.098;13.716;2022-12-24T06:01:12;1.70;;;0.80;;
7557;SDS011;3820;51.098;13.716;2022-12-24T06:03:40;1.20;;;1.10;;
7557;SDS011;3820;51.098;13.716;2022-12-24T06:06:08;2.47;;;0.87;;
7557;SDS011;3820;51.098;13.716;2022-12-24T06:08:36;0.97;;;0.70;;
7557;SDS011;3820;51.098;13.716;2022-12-24T06:11:05;1.23;;;0.70;;
7557;SDS011;3820;51.098;13.716;2022-12-24T06:13:36;4.20;;;1.37;;
7557;SDS011;3820;51.098;13.716;2022-12-24T06:16:04;1.30;;;1.07;;
7557;SDS011;3820;51.098;13.716;2022-12-24T06:18:32;6.43;;;1.70;;
7557;SDS011;3820;51.098;13.716;2022-12-24T06:21:00;0.77;;;0.77;;
7557;SDS011;3820;51.098;13.716;2022-12-24T06:23:28;2.83;;;0.90;;
7557;SDS011;3820;51.098;13.716;2022-12-24T06:25:56;1.50;;;1.10;;
7557;SDS011;3820;51.098;13.716;2022-12-24T06:28:23;2.27;;;1.20;;
7557;SDS011;3820;51.098;13.716;2022-12-24T06:30:49;2.53;;;0.93;;
7557;SDS011;3820;51.098;13.716;2022-12-24T06:33:19;1.27;;;1.17;;
7557;SDS011;3820;51.098;13.716;2022-12-24T06:35:46;5.90;;;1.27;;
7557;SDS011;3820;51.098;13.716;2022-12-24T06:38:14;4.30;;;1.70;;
7557;SDS011;3820;51.098;13.716;2022-12-24T06:40:41;1.43;;;0.90;;
7557;SDS011;3820;51.098;13.716;2022-12-24T06:43:09;2.37;;;1.03;;
7557;SDS011;3820;51.098;13.716;2022-12-24T06:45:36;1.97;;;0.80;;
7557;SDS011;3820;51.098;13.716;2022-12-24T06:48:02;4.87;;;1.03;;
7557;SDS011;3820;51.098;13.716;2022-12-24T06:50:30;2.67;;;1.07;;
7557;SDS011;3820;51.098;13.716;2022-12-24T06:52:58;4.10;;;1.83;;
7557;SDS011;3820;51.098;13.716;2022-12-24T06:55:24;2.20;;;1.67;;
7557;SDS011;3820;51.098;13.716;2022-12-24T06:57:51;8.53;;;2.07;;
7557;SDS011;3820;51.098;13.716;2022-12-24T07:00:18;6.10;;;1.97;;
7557;SDS011;3820;51.098;13.716;2022-12-24T07:02:44;7.70;;;3.10;;
7557;SDS011;3820;51.098;13.716;2022-12-24T07:05:11;8.63;;;3.00;;
7557;SDS011;3820;51.098;13.716;2022-12-24T07:07:39;4.13;;;1.57;;
7557;SDS011;3820;51.098;13.716;2022-12-24T07:10:07;16.80;;;3.47;;
7557;SDS011;3820;51.098;13.716;2022-12-24T07:12:36;28.80;;;6.77;;
7557;SDS011;3820;51.098;13.716;2022-12-24T07:15:03;2.37;;;1.30;;
7557;SDS011;3820;51.098;13.716;2022-12-24T07:17:30;7.73;;;2.00;;
7557;SDS011;3820;51.098;13.716;2022-12-24T07:19:56;7.17;;;2.20;;
7557;SDS011;3820;51.098;13.716;2022-12-24T07:22:23;15.47;;;4.27;;
7557;SDS011;3820;51.098;13.716;2022-12-24T07:24:49;12.33;;;3.70;;
7557;SDS011;3820;51.098;13.716;2022-12-24T07:27:16;3.03;;;1.73;;
7557;SDS011;3820;51.098;13.716;2022-12-24T07:29:42;2.53;;;1.00;;
7557;SDS011;3820;51.098;13.716;2022-12-24T07:32:09;2.07;;;0.97;;
7557;SDS011;3820;51.098;13.716;2022-12-24T07:34:35;2.90;;;1.20;;
7557;SDS011;3820;51.098;13.716;2022-12-24T07:37:02;1.43;;;0.77;;
7557;SDS011;3820;51.098;13.716;2022-12-24T07:39:28;8.90;;;1.80;;
7557;SDS011;3820;51.098;13.716;2022-12-24T07:41:55;5.50;;;2.03;;
7557;SDS011;3820;51.098;13.716;2022-12-24T07:44:21;8.63;;;3.00;;
7557;SDS011;3820;51.098;13.716;2022-12-24T07:46:48;2.70;;;1.37;;
7557;SDS011;3820;51.098;13.716;2022-12-24T07:49:14;4.87;;;2.53;;
7557;SDS011;3820;51.098;13.716;2022-12-24T07:51:41;4.43;;;2.20;;
7557;SDS011;3820;51.098;13.716;2022-12-24T07:54:07;10.17;;;1.90;;
7557;SDS011;3820;51.098;13.716;2022-12-24T07:56:34;9.57;;;2.10;;
7557;SDS011;3820;51.098;13.716;2022-12-24T07:59:00;3.67;;;1.97;;
7557;SDS011;3820;51.098;13.716;2022-12-24T08:01:27;2.23;;;1.20;;
7557;SDS011;3820;51.098;13.716;2022-12-24T08:03:53;4.10;;;1.50;;
7557;SDS011;3820;51.098;13.716;2022-12-24T08:06:20;4.13;;;1.33;;
7557;SDS011;3820;51.098;13.716;2022-12-24T08:08:47;3.27;;;1.20;;
7557;SDS011;3820;51.098;13.716;2022-12-24T08:11:14;2.10;;;1.20;;
7557;SDS011;3820;51.098;13.716;2022-12-24T08:13:41;1.70;;;1.00;;
7557;SDS011;3820;51.098;13.716;2022-12-24T08:16:08;1.77;;;0.90;;
7557;SDS011;3820;51.098;13.716;2022-12-24T08:18:34;1.90;;;1.13;;
7557;SDS011;3820;51.098;13.716;2022-12-24T08:21:01;2.67;;;1.87;;
7557;SDS011;3820;51.098;13.716;2022-12-24T08:23:27;3.83;;;1.03;;
7557;SDS011;3820;51.098;13.716;2022-12-24T08:25:54;1.20;;;1.10;;
7557;SDS011;3820;51.098;13.716;2022-12-24T08:28:20;1.67;;;0.80;;
7557;SDS011;3820;51.098;13.716;2022-12-24T08:30:48;2.80;;;0.90;;
7557;SDS011;3820;51.098;13.716;2022-12-24T08:33:15;2.13;;;1.10;;
7557;SDS011;3820;51.098;13.716;2022-12-24T08:35:46;1.93;;;1.17;;
7557;SDS011;3820;51.098;13.716;2022-12-24T08:38:14;3.37;;;0.97;;
7557;SDS011;3820;51.098;13.716;2022-12-24T08:40:40;2.37;;;1.30;;
7557;SDS011;3820;51.098;13.716;2022-12-24T08:43:07;3.00;;;1.27;;
7557;SDS011;3820;51.098;13.716;2022-12-24T08:45:34;6.13;;;1.30;;
7557;SDS011;3820;51.098;13.716;2022-12-24T08:48:06;3.37;;;1.30;;
7557;SDS011;3820;51.098;13.716;2022-12-24T08:50:39;10.47;;;2.77;;
7557;SDS011;3820;51.098;13.716;2022-12-24T08:53:07;3.37;;;1.80;;
7557;SDS011;3820;51.098;13.716;2022-12-24T08:55:34;3.70;;;1.37;;
7557;SDS011;3820;51.098;13.716;2022-12-24T08:58:00;5.23;;;1.33;;
7557;SDS011;3820;51.098;13.716;2022-12-24T09:00:27;8.40;;;2.50;;
7557;SDS011;3820;51.098;13.716;2022-12-24T09:02:54;18.53;;;6.13;;
7557;SDS011;3820;51.098;13.716;2022-12-24T09:05:21;32.33;;;9.23;;
7557;SDS011;3820;51.098;13.716;2022-12-24T09:07:48;14.30;;;3.23;;
7557;SDS011;3820;51.098;13.716;2022-12-24T09:10:14;25.13;;;4.70;;
7557;SDS011;3820;51.098;13.716;2022-12-24T09:12:42;12.63;;;4.43;;
7557;SDS011;3820;51.098;13.716;2022-12-24T09:15:08;8.13;;;3.17;;
7557;SDS011;3820;51.098;13.716;2022-12-24T09:17:35;11.00;;;2.33;;
7557;SDS011;3820;51.098;13.716;2022-12-24T09:20:02;7.43;;;2.80;;
7557;SDS011;3820;51.098;13.716;2022-12-24T09:22:29;13.80;;;4.03;;
7557;SDS011;3820;51.098;13.716;2022-12-24T09:24:56;9.97;;;3.33;;
7557;SDS011;3820;51.098;13.716;2022-12-24T09:27:22;5.50;;;1.77;;
7557;SDS011;3820;51.098;13.716;2022-12-24T09:29:49;7.83;;;3.33;;
7557;SDS011;3820;51.098;13.716;2022-12-24T09:32:15;2.90;;;1.73;;
7557;SDS011;3820;51.098;13.716;2022-12-24T09:34:42;2.53;;;1.10;;
7557;SDS011;3820;51.098;13.716;2022-12-24T09:37:08;3.90;;;2.53;;
7557;SDS011;3820;51.098;13.716;2022-12-24T09:39:35;3.03;;;0.87;;
7557;SDS011;3820;51.098;13.716;2022-12-24T09:44:48;1.40;;;0.83;;
7557;SDS011;3820;51.098;13.716;2022-12-24T09:47:40;3.80;;;1.20;;
7557;SDS011;3820;51.098;13.716;2022-12-24T09:53:16;2.50;;;2.00;;
7557;SDS011;3820;51.098;13.716;2022-12-24T09:55:49;1.07;;;0.77;;
7557;SDS011;3820;51.098;13.716;2022-12-24T09:58:21;1.30;;;1.00;;
7557;SDS011;3820;51.098;13.716;2022-12-24T10:00:51;1.00;;;0.80;;
7557;SDS011;3820;51.098;13.716;2022-12-24T10:03:18;2.53;;;1.20;;
7557;SDS011;3820;51.098;13.716;2022-12-24T10:08:40;1.10;;;0.73;;
7557;SDS011;3820;51.098;13.716;2022-12-24T10:11:22;2.97;;;1.00;;
7557;SDS011;3820;51.098;13.716;2022-12-24T10:19:02;3.40;;;1.07;;
7557;SDS011;3820;51.098;13.716;2022-12-24T10:21:48;1.95;;;0.80;;
7557;SDS011;3820;51.098;13.716;2022-12-24T10:24:32;2.60;;;1.20;;
7557;SDS011;3820;51.098;13.716;2022-12-24T10:27:12;1.50;;;0.67;;
7557;SDS011;3820;51.098;13.716;2022-12-24T10:29:41;1.40;;;0.93;;
7557;SDS011;3820;51.098;13.716;2022-12-24T10:32:26;2.00;;;0.70;;
7557;SDS011;3820;51.098;13.716;2022-12-24T10:34:57;4.83;;;1.57;;
7557;SDS011;3820;51.098;13.716;2022-12-24T10:37:27;1.63;;;0.90;;
7557;SDS011;3820;51.098;13.716;2022-12-24T10:39:55;1.70;;;0.87;;
7557;SDS011;3820;51.098;13.716;2022-12-24T10:42:24;2.60;;;0.80;;
7557;SDS011;3820;51.098;13.716;2022-12-24T10:44:54;1.05;;;0.70;;
7557;SDS011;3820;51.098;13.716;2022-12-24T10:47:22;3.47;;;1.05;;
7557;SDS011;3820;51.098;13.716;2022-12-24T10:50:00;3.20;;;0.80;;
7557;SDS011;3820;51.098;13.716;2022-12-24T10:52:32;3.08;;;1.02;;
7557;SDS011;3820;51.098;13.716;2022-12-24T10:57:44;3.97;;;1.17;;
7557;SDS011;3820;51.098;13.716;2022-12-24T11:00:18;1.15;;;0.70;;
7557;SDS011;3820;51.098;13.716;2022-12-24T11:02:47;3.10;;;0.85;;
7557;SDS011;3820;51.098;13.716;2022-12-24T11:05:30;2.08;;;0.75;;
7557;SDS011;3820;51.098;13.716;2022-12-24T11:07:59;2.92;;;1.33;;
7557;SDS011;3820;51.098;13.716;2022-12-24T11:10:26;2.10;;;0.90;;
7557;SDS011;3820;51.098;13.716;2022-12-24T11:12:53;1.90;;;1.40;;
7557;SDS011;3820;51.098;13.716;2022-12-24T11:15:39;1.77;;;1.00;;
7557;SDS011;3820;51.098;13.716;2022-12-24T11:18:12;2.30;;;0.77;;
7557;SDS011;3820;51.098;13.716;2022-12-24T11:20:39;1.37;;;0.87;;
7557;SDS011;3820;51.098;13.716;2022-12-24T11:23:08;4.30;;;0.67;;
7557;SDS011;3820;51.098;13.716;2022-12-24T11:25:40;2.17;;;0.87;;
7557;SDS011;3820;51.098;13.716;2022-12-24T11:28:20;2.30;;;0.70;;
7557;SDS011;3820;51.098;13.716;2022-12-24T11:33:46;2.83;;;0.70;;
7557;SDS011;3820;51.098;13.716;2022-12-24T11:36:14;2.23;;;0.80;;
7557;SDS011;3820;51.098;13.716;2022-12-24T11:38:43;1.10;;;1.00;;
7557;SDS011;3820;51.098;13.716;2022-12-24T11:41:18;4.83;;;0.70;;
7557;SDS011;3820;51.098;13.716;2022-12-24T11:43:50;3.03;;;0.90;;
7557;SDS011;3820;51.098;13.716;2022-12-24T11:46:19;3.00;;;0.77;;
7557;SDS011;3820;51.098;13.716;2022-12-24T11:48:47;0.93;;;0.60;;
7557;SDS011;3820;51.098;13.716;2022-12-24T11:53:55;1.47;;;0.50;;
7557;SDS011;3820;51.098;13.716;2022-12-24T11:56:28;1.03;;;0.80;;
7557;SDS011;3820;51.098;13.716;2022-12-24T11:59:08;3.00;;;0.80;;
7557;SDS011;3820;51.098;13.716;2022-12-24T12:01:41;1.30;;;0.83;;
7557;SDS011;3820;51.098;13.716;2022-12-24T12:04:24;2.77;;;0.87;;
7557;SDS011;3820;51.098;13.716;2022-12-24T12:06:55;1.43;;;0.80;;
7557;SDS011;3820;51.098;13.716;2022-12-24T12:12:07;2.37;;;0.50;;
7557;SDS011;3820;51.098;13.716;2022-12-24T12:14:52;2.40;;;0.70;;
7557;SDS011;3820;51.098;13.716;2022-12-24T12:17:27;4.93;;;1.10;;
7557;SDS011;3820;51.098;13.716;2022-12-24T12:19:59;0.87;;;0.70;;
7557;SDS011;3820;51.098;13.716;2022-12-24T12:23:13;2.17;;;1.00;;
7557;SDS011;3820;51.098;13.716;2022-12-24T12:25:33;2.77;;;1.20;;
7557;SDS011;3820;51.098;13.716;2022-12-24T12:28:04;1.80;;;1.00;;
7557;SDS011;3820;51.098;13.716;2022-12-24T12:30:34;0.87;;;0.70;;
7557;SDS011;3820;51.098;13.716;2022-12-24T12:33:18;1.57;;;1.23;;
7557;SDS011;3820;51.098;13.716;2022-12-24T12:35:49;3.53;;;1.63;;
7557;SDS011;3820;51.098;13.716;2022-12-24T12:38:19;1.70;;;0.77;;
7557;SDS011;3820;51.098;13.716;2022-12-24T12:41:38;2.63;;;1.17;;
7557;SDS011;3820;51.098;13.716;2022-12-24T12:46:57;0.60;;;0.60;;
7557;SDS011;3820;51.098;13.716;2022-12-24T12:49:46;1.00;;;0.60;;
7557;SDS011;3820;51.098;13.716;2022-12-24T12:52:32;7.40;;;0.73;;
7557;SDS011;3820;51.098;13.716;2022-12-24T12:55:27;3.07;;;1.40;;
7557;SDS011;3820;51.098;13.716;2022-12-24T12:58:14;2.10;;;0.87;;
7557;SDS011;3820;51.098;13.716;2022-12-24T13:01:12;0.93;;;0.63;;
7557;SDS011;3820;51.098;13.716;2022-12-24T13:06:41;3.50;;;0.70;;
7557;SDS011;3820;51.098;13.716;2022-12-24T13:09:19;1.13;;;0.90;;
7557;SDS011;3820;51.098;13.716;2022-12-24T13:12:02;0.90;;;0.70;;
7557;SDS011;3820;51.098;13.716;2022-12-24T13:14:40;1.50;;;0.60;;
7557;SDS011;3820;51.098;13.716;2022-12-24T13:17:32;0.70;;;0.60;;
7557;SDS011;3820;51.098;13.716;2022-12-24T13:20:13;4.80;;;1.30;;
7557;SDS011;3820;51.098;13.716;2022-12-24T13:25:23;1.60;;;0.90;;
7557;SDS011;3820;51.098;13.716;2022-12-24T13:27:52;1.60;;;0.83;;
7557;SDS011;3820;51.098;13.716;2022-12-24T13:30:32;4.10;;;0.80;;
7557;SDS011;3820;51.098;13.716;2022-12-24T13:33:01;1.20;;;0.90;;
7557;SDS011;3820;51.098;13.716;2022-12-24T13:35:30;1.57;;;0.70;;
7557;SDS011;3820;51.098;13.716;2022-12-24T13:40:54;1.30;;;0.90;;
7557;SDS011;3820;51.098;13.716;2022-12-24T13:43:21;1.30;;;0.70;;
7557;SDS011;3820;51.098;13.716;2022-12-24T13:45:48;1.63;;;0.63;;
7557;SDS011;3820;51.098;13.716;2022-12-24T13:48:20;1.33;;;0.90;;
7557;SDS011;3820;51.098;13.716;2022-12-24T13:50:54;2.87;;;1.17;;
7557;SDS011;3820;51.098;13.716;2022-12-24T13:53:37;2.10;;;1.00;;
7557;SDS011;3820;51.098;13.716;2022-12-24T13:56:07;2.23;;;0.90;;
7557;SDS011;3820;51.098;13.716;2022-12-24T13:58:45;2.60;;;1.07;;
7557;SDS011;3820;51.098;13.716;2022-12-24T14:01:15;1.13;;;0.60;;
7557;SDS011;3820;51.098;13.716;2022-12-24T14:03:45;2.57;;;1.07;;
7557;SDS011;3820;51.098;13.716;2022-12-24T14:06:24;6.10;;;1.20;;
7557;SDS011;3820;51.098;13.716;2022-12-24T14:09:12;3.93;;;1.27;;
7557;SDS011;3820;51.098;13.716;2022-12-24T14:14:30;3.73;;;0.80;;
7557;SDS011;3820;51.098;13.716;2022-12-24T14:17:14;6.40;;;1.40;;
7557;SDS011;3820;51.098;13.716;2022-12-24T14:19:55;0.93;;;0.70;;
7557;SDS011;3820;51.098;13.716;2022-12-24T14:22:25;1.70;;;0.97;;
7557;SDS011;3820;51.098;13.716;2022-12-24T14:25:03;3.30;;;1.17;;
7557;SDS011;3820;51.098;13.716;2022-12-24T14:27:42;6.07;;;1.00;;
7557;SDS011;3820;51.098;13.716;2022-12-24T14:30:16;1.10;;;0.70;;
7557;SDS011;3820;51.098;13.716;2022-12-24T14:32:45;1.10;;;1.00;;
7557;SDS011;3820;51.098;13.716;2022-12-24T14:37:40;4.10;;;1.20;;
7557;SDS011;3820;51.098;13.716;2022-12-24T14:40:07;1.43;;;0.80;;
7557;SDS011;3820;51.098;13.716;2022-12-24T14:42:43;0.70;;;0.50;;
7557;SDS011;3820;51.098;13.716;2022-12-24T14:45:36;1.07;;;0.90;;
7557;SDS011;3820;51.098;13.716;2022-12-24T14:55:57;0.70;;;0.70;;
7557;SDS011;3820;51.098;13.716;2022-12-24T14:58:25;0.83;;;0.70;;
7557;SDS011;3820;51.098;13.716;2022-12-24T15:00:55;2.50;;;0.93;;
7557;SDS011;3820;51.098;13.716;2022-12-24T15:03:24;0.93;;;0.80;;
7557;SDS011;3820;51.098;13.716;2022-12-24T15:05:53;0.90;;;0.90;;
7557;SDS011;3820;51.098;13.716;2022-12-24T15:08:31;1.10;;;0.77;;
7557;SDS011;3820;51.098;13.716;2022-12-24T15:11:02;1.10;;;0.90;;
7557;SDS011;3820;51.098;13.716;2022-12-24T15:13:40;2.33;;;0.73;;
7557;SDS011;3820;51.098;13.716;2022-12-24T15:16:10;2.90;;;1.00;;
7557;SDS011;3820;51.098;13.716;2022-12-24T15:18:44;3.30;;;1.07;;
7557;SDS011;3820;51.098;13.716;2022-12-24T15:21:17;1.60;;;0.83;;
7557;SDS011;3820;51.098;13.716;2022-12-24T15:23:48;1.07;;;0.73;;
7557;SDS011;3820;51.098;13.716;2022-12-24T15:26:18;2.53;;;0.60;;
7557;SDS011;3820;51.098;13.716;2022-12-24T15:28:49;0.67;;;0.67;;
7557;SDS011;3820;51.098;13.716;2022-12-24T15:31:24;0.80;;;0.80;;
7557;SDS011;3820;51.098;13.716;2022-12-24T15:33:53;3.27;;;1.47;;
7557;SDS011;3820;51.098;13.716;2022-12-24T15:36:25;0.73;;;0.73;;
7557;SDS011;3820;51.098;13.716;2022-12-24T15:38:54;1.80;;;0.97;;
7557;SDS011;3820;51.098;13.716;2022-12-24T15:41:35;1.27;;;1.13;;
7557;SDS011;3820;51.098;13.716;2022-12-24T15:44:03;1.30;;;1.20;;
7557;SDS011;3820;51.098;13.716;2022-12-24T15:46:30;1.87;;;1.20;;
7557;SDS011;3820;51.098;13.716;2022-12-24T15:48:57;1.93;;;1.00;;
7557;SDS011;3820;51.098;13.716;2022-12-24T15:51:26;3.30;;;1.27;;
7557;SDS011;3820;51.098;13.716;2022-12-24T15:54:05;1.63;;;1.43;;
7557;SDS011;3820;51.098;13.716;2022-12-24T15:56:39;4.13;;;1.37;;
7557;SDS011;3820;51.098;13.716;2022-12-24T16:01:45;4.57;;;1.37;;
7557;SDS011;3820;51.098;13.716;2022-12-24T16:04:14;2.77;;;0.97;;
7557;SDS011;3820;51.098;13.716;2022-12-24T16:06:59;0.73;;;0.73;;
7557;SDS011;3820;51.098;13.716;2022-12-24T16:09:42;2.00;;;1.27;;
7557;SDS011;3820;51.098;13.716;2022-12-24T16:12:18;0.80;;;0.80;;
7557;SDS011;3820;51.098;13.716;2022-12-24T16:14:47;2.77;;;0.80;;
7557;SDS011;3820;51.098;13.716;2022-12-24T16:17:17;1.67;;;1.07;;
7557;SDS011;3820;51.098;13.716;2022-12-24T16:19:46;0.97;;;0.90;;
7557;SDS011;3820;51.098;13.716;2022-12-24T16:22:16;0.97;;;0.73;;
7557;SDS011;3820;51.098;13.716;2022-12-24T16:27:53;1.43;;;0.70;;
7557;SDS011;3820;51.098;13.716;2022-12-24T16:30:25;1.30;;;0.73;;
7557;SDS011;3820;51.098;13.716;2022-12-24T16:32:52;1.70;;;0.90;;
7557;SDS011;3820;51.098;13.716;2022-12-24T16:35:26;0.80;;;0.80;;
7557;SDS011;3820;51.098;13.716;2022-12-24T16:37:53;3.10;;;1.13;;
7557;SDS011;3820;51.098;13.716;2022-12-24T16:40:20;0.90;;;0.80;;
7557;SDS011;3820;51.098;13.716;2022-12-24T16:42:52;1.10;;;1.00;;
7557;SDS011;3820;51.098;13.716;2022-12-24T16:45:37;2.10;;;1.90;;